Terminal Aerodrome Forecast
Issued by NWS

Home | Current Version | Previous Version | Graphics & Text | Print | Product List | Glossary On
Versions: 1 2 3 4 5 6 7 8 9 10 11 12 13 14 15
390
FTUS43 KFGF 220439 CCA
TAFBJI
TAF COR
KBJI 220439Z 2205/2224 26007KT 2SM BR FEW130
      TEMPO 2205/2206 1/2SM FG
     FM222000 25011KT P6SM SCT200=

USA.gov is the U.S. government's official web portal to all federal, state and local government web resources and services.